Juliustown, New Jersey
Current Conditions -  °F | °C
As of 10:58 PM on Thursday 27 Nov 2014 (Local Time) from KWRI Reporting Station
Clear Clear  
Wind Chill: 25°   Ceiling: Unl
Heat Index: 31°   Visibility: 10mi
Dew Point: 26°   Wind: 6mph
Humidity: 82%   Direction: 310°NW
Pressure: 30.07"   Gusts: NA
Location:  40.01°N, 74.67°W
Report Text: KWRI 280358Z AUTO 31005KT 10SM CLR M01/M03 A3007 RMK AO2 SLP187 T10071034
Loading
Personal Weather Stations






























Interactive Weather Map New forecast layout! Learn more

10-Day Weather Forecast

Advertisements
Track Severe Weather on mobile